Zagreb, Croatia

7:04 AM CEST on July 12, 2014 (GMT +0200)
IDUBRAVA2 Elev 384 ft | 45.82 °N, 16.09 °E | Change Station

Current weather conditions updated 8 minutes ago

Clear
Clear
61.0 °F
Feels Like 61.0 °F
N
0.0
Wind Variable Wind from NNW
Gusts 0.0 mph

Today is forecast to be Much Warmer than yesterday. Thunderstorms developing in the afternoon.

Today
High -- | Low -- °F
--% Chance of Precip.
Yesterday
High -- | Low -- °F
Precip. -- in
5:17 AM 8:44 PM
Full, 100% visible
Pressure 29.80 in
Visibility -9999.0 miles
Clouds
Dew Point 57 °F
Humidity 88%
Rainfall 0.00 in
Snow Depth Not available.
UV Not available.
Pollen Not available.
Air Quality Not available.
Flu Activity Not available.
METAR LDZA 120500Z VRB01KT CAVOK 15/15 Q1009 NOSIG

More Conditions Fewer Conditions

Pressure 29.80 in
Visibility -9999.0 miles
Clouds
Dew Point 57 °F
Humidity 88%
Rainfall 0.00 in
Snow Depth Not available.
UV Not available.
Pollen Not available.
Air Quality Not available.
Flu Activity Not available.
METAR LDZA 120500Z VRB01KT CAVOK 15/15 Q1009 NOSIG

More Conditions Fewer Conditions

10-Day Weather Forecast

Almanac

Astronomy

Jul. 12, 2014 Rise Set
Actual Time 5:17 AM CEST 8:44 PM CEST
Civil Twilight 4:40 AM CEST 9:21 PM CEST
Nautical Twilight 3:51 AM CEST 10:10 PM CEST
Astronomical Twilight 2:47 AM CEST 11:13 PM CEST
Moon 8:26 PM CEST 5:20 AM CEST
Length of Visible Light 16h 41m
Length of Day
15h 27m
Tomorrow will be 1m 32s shorter.
Full, 100% of the Moon is Illuminated
Today
Full
Jul 12
Full
Jul 18
Last Quarter
Jul 26
New
Aug 3
First Quarter

Yesterday's Extremes

Country Highs Country Lows

Community

WunderPhotos

Upload Photos

1,732,711 photos uploaded!

Nearby

Snow Depth

Not available.

Earthquake Activity

City Distance Mag. Time & Date
No recent earthquake activity has been reported nearby.
Minimum magnitude displayed is 2.5.

Coastal Water Temperatures

Place Temperature
No Stations Reporting

Nearby Weather Stations

Station Location Temp. Dew Point Humidity Wind Precip. Elev Updated Type
Zagreb 61.0 °F 57 °F 88% NNW  at  0.0 mph 0.00 in / hr 384 ft 6:56 AM CEST Normal
Pantovcak, Zagreb 64.0 °F 57 °F 79% North  at  0.0 mph 0.00 in / hr 597 ft 7:04 AM CEST Rapid Fire
Mlinovi, Zagreb 63.3 °F 56 °F 78% NNW  at  0.0 mph 0.00 in / hr 794 ft 7:00 AM CEST Normal
Ivanja Reka, Zagreb 60.1 °F 59 °F 95% SSE  at  0.0 mph 0.00 in / hr 347 ft 7:02 AM CEST Rapid Fire
Zagreb, Dugave, Zagreb 60.4 °F 58 °F 91% SSE  at  0.0 mph 0.00 in / hr 377 ft 6:19 AM CEST Rapid Fire
Vrapce, Zagreb 68.7 °F 61 °F 77% South  at  0.0 mph 0.00 in / hr 650 ft 7:00 AM CEST Normal
Samobor, Samobor 59.9 °F 58 °F 92% WNW  at  0.0 mph 0.00 in / hr 659 ft 7:04 AM CEST Rapid Fire
Giznik, Samobor 66.4 °F 61 °F 83% SE  at  0.0 mph 0.00 in / hr 850 ft 7:03 AM CEST Normal
Tuhelj, Tuhelj 57.7 °F 56 °F 94% SSW  at  0.0 mph 0.00 in / hr 594 ft 7:04 AM CEST Rapid Fire

Show More Stations Show Fewer Stations